Time;durP1;ratioP1;P1;durP2;ratioP2;P2;SDS_P1;SDS_P2;PMS_P1;PMS_P2;Temp;Humidity;BMP_temperature;BMP_pressure;BME280_temperature;BME280_humidity;BME280_pressure;Samples;Min_cycle;Max_cycle;Signal;HPM_P1;HPM_P2
2022/06/12 00:00:46;;;;;;;13.20;9.90;;;19.10;1.00;;;;;;5057164;28;20981;-76
2022/06/12 00:03:16;;;;;;;11.23;7.57;;;19.10;1.00;;;;;;5054336;28;20464;-76
2022/06/12 00:05:47;;;;;;;10.47;7.67;;;19.00;1.00;;;;;;5058000;28;20483;-75
2022/06/12 00:08:15;;;;;;;10.90;8.30;;;19.00;1.00;;;;;;5057975;28;20468;-75
2022/06/12 00:10:45;;;;;;;12.00;8.70;;;19.00;1.00;;;;;;5055395;28;20463;-75
2022/06/12 00:13:16;;;;;;;13.93;8.07;;;18.90;1.00;;;;;;5061764;28;20626;-75
2022/06/12 00:15:44;;;;;;;9.50;8.10;;;18.90;1.00;;;;;;5046485;28;20457;-75
2022/06/12 00:18:11;;;;;;;10.33;8.43;;;18.90;1.00;;;;;;5060126;28;20485;-76
2022/06/12 00:20:38;;;;;;;12.10;9.07;;;18.90;1.00;;;;;;5055259;28;20795;-77
2022/06/12 00:23:10;;;;;;;10.57;8.57;;;18.90;1.00;;;;;;5058305;28;20475;-77
2022/06/12 00:25:39;;;;;;;10.50;8.07;;;18.80;1.00;;;;;;5057351;28;20451;-77
2022/06/12 00:28:08;;;;;;;14.33;9.13;;;18.80;1.00;;;;;;5057295;28;20566;-77
2022/06/12 00:30:35;;;;;;;10.80;8.30;;;18.70;1.00;;;;;;5058281;28;20467;-76
2022/06/12 00:33:02;;;;;;;11.83;8.60;;;18.70;1.00;;;;;;5057655;28;20464;-75
2022/06/12 00:35:33;;;;;;;10.63;8.60;;;18.60;1.00;;;;;;5058119;28;20579;-77
2022/06/12 00:38:00;;;;;;;11.40;9.10;;;18.60;1.00;;;;;;5058044;28;20489;-76
2022/06/12 00:40:29;;;;;;;12.50;8.60;;;18.60;1.00;;;;;;5056049;28;20543;-76
2022/06/12 00:42:59;;;;;;;11.03;8.80;;;18.50;1.00;;;;;;5060710;28;20973;-77
2022/06/12 00:45:38;;;;;;;11.00;9.60;;;18.50;1.00;;;;;;5058702;28;20485;-77
2022/06/12 00:48:09;;;;;;;10.97;9.13;;;18.50;1.00;;;;;;5057253;28;20556;-77
2022/06/12 00:50:38;;;;;;;10.20;8.30;;;18.50;1.00;;;;;;5059966;28;24122;-76
2022/06/12 00:53:08;;;;;;;11.50;8.77;;;18.50;1.00;;;;;;5056603;28;20486;-75
2022/06/12 00:55:43;;;;;;;10.27;8.97;;;18.40;1.00;;;;;;5058012;28;20478;-76
2022/06/12 00:58:14;;;;;;;12.00;9.13;;;18.40;1.00;;;;;;5059233;28;20565;-76
2022/06/12 01:00:41;;;;;;;11.20;8.70;;;18.40;1.00;;;;;;5049872;28;20447;-76
2022/06/12 01:03:09;;;;;;;12.97;9.00;;;18.30;1.00;;;;;;5062363;28;20847;-75
2022/06/12 01:08:22;;;;;;;12.40;9.03;;;18.30;1.00;;;;;;5054425;28;21205;-76
2022/06/12 01:10:53;;;;;;;12.53;8.80;;;18.20;1.00;;;;;;5060230;28;20460;-75
2022/06/12 01:13:24;;;;;;;11.27;9.70;;;18.20;1.00;;;;;;5058936;28;20466;-76
2022/06/12 01:15:54;;;;;;;11.10;8.93;;;18.20;1.00;;;;;;5059731;28;20465;-75
2022/06/12 01:18:23;;;;;;;11.93;8.73;;;18.20;1.00;;;;;;5056837;28;21051;-75
2022/06/12 01:20:58;;;;;;;12.20;9.30;;;18.10;1.00;;;;;;5055940;28;20824;-75
2022/06/12 01:23:58;;;;;;;13.23;9.57;;;18.10;1.00;;;;;;5057359;28;20464;-75
2022/06/12 01:26:57;;;;;;;11.47;9.13;;;18.10;1.00;;;;;;5057413;28;20464;-76
2022/06/12 01:29:31;;;;;;;11.70;9.10;;;18.00;1.00;;;;;;5055720;28;20475;-76
2022/06/12 01:32:05;;;;;;;13.20;10.70;;;18.00;1.00;;;;;;5055333;28;20448;-77
2022/06/12 01:34:42;;;;;;;11.30;8.67;;;18.00;1.00;;;;;;5054508;28;20898;-76
2022/06/12 01:37:23;;;;;;;13.37;9.93;;;18.00;1.00;;;;;;5056536;28;20463;-76
2022/06/12 01:39:59;;;;;;;13.07;9.57;;;18.00;1.00;;;;;;5054265;28;20480;-75
2022/06/12 01:42:36;;;;;;;11.53;9.70;;;18.00;1.00;;;;;;5053668;28;20461;-76
2022/06/12 01:45:13;;;;;;;13.77;9.90;;;17.90;1.00;;;;;;5054075;28;20466;-77
2022/06/12 01:47:53;;;;;;;13.20;9.70;;;17.90;1.00;;;;;;5053283;28;20474;-78
2022/06/12 01:50:28;;;;;;;12.37;9.87;;;17.90;1.00;;;;;;5051851;28;20459;-77
2022/06/12 01:53:03;;;;;;;10.80;9.63;;;17.90;1.00;;;;;;5053551;28;20482;-77
2022/06/12 01:55:38;;;;;;;14.00;10.43;;;17.90;1.00;;;;;;5050977;28;21379;-77
2022/06/12 01:58:10;;;;;;;11.67;9.83;;;17.80;1.00;;;;;;5054385;28;20454;-76
2022/06/12 02:00:41;;;;;;;11.43;10.20;;;17.80;1.00;;;;;;5054836;28;20463;-76
2022/06/12 02:03:13;;;;;;;12.10;10.37;;;17.80;1.00;;;;;;5050839;28;20818;-76
2022/06/12 02:05:47;;;;;;;13.90;10.13;;;17.80;1.00;;;;;;5048228;28;20996;-76
2022/06/12 02:08:18;;;;;;;14.97;12.70;;;17.70;1.00;;;;;;5053966;28;20461;-77
2022/06/12 02:10:48;;;;;;;11.00;9.57;;;17.70;1.00;;;;;;5048571;28;20469;-76
2022/06/12 02:13:18;;;;;;;12.57;10.23;;;17.70;1.00;;;;;;5056473;28;20467;-77
2022/06/12 02:15:53;;;;;;;12.50;10.70;;;17.70;1.00;;;;;;5055710;28;20477;-77
2022/06/12 02:18:29;;;;;;;12.00;10.70;;;17.80;1.00;;;;;;5055880;28;20463;-76
2022/06/12 02:21:08;;;;;;;12.43;11.07;;;17.80;1.00;;;;;;5054902;28;20470;-77
2022/06/12 02:23:47;;;;;;;11.20;10.00;;;17.90;1.00;;;;;;5053072;28;20459;-77
2022/06/12 02:26:18;;;;;;;13.73;10.50;;;17.90;1.00;;;;;;5043296;28;20471;-77
2022/06/12 02:28:49;;;;;;;11.77;9.63;;;18.00;1.00;;;;;;5049150;28;20452;-77
2022/06/12 02:31:23;;;;;;;12.40;10.17;;;18.10;1.00;;;;;;5055770;28;20483;-77
2022/06/12 02:33:54;;;;;;;14.53;10.20;;;18.10;1.00;;;;;;5057206;28;20905;-76
2022/06/12 02:36:25;;;;;;;14.10;10.50;;;18.20;1.00;;;;;;5058794;28;20464;-76
2022/06/12 02:38:57;;;;;;;12.03;10.73;;;18.10;1.00;;;;;;5059131;28;20464;-76
2022/06/12 02:41:29;;;;;;;12.57;10.57;;;18.20;1.00;;;;;;5056725;28;20448;-77
2022/06/12 02:44:00;;;;;;;11.40;9.60;;;18.10;1.00;;;;;;5057600;28;20451;-75
2022/06/12 02:46:34;;;;;;;12.17;10.87;;;18.10;1.00;;;;;;5054864;28;20468;-78
2022/06/12 02:49:01;;;;;;;11.83;10.20;;;18.10;1.00;;;;;;5059630;28;20919;-77
2022/06/12 02:51:35;;;;;;;12.80;11.13;;;18.20;1.00;;;;;;5053886;28;20464;-77
2022/06/12 02:54:10;;;;;;;16.13;11.60;;;18.20;1.00;;;;;;5059457;28;20474;-76
2022/06/12 02:56:44;;;;;;;13.40;11.00;;;18.30;1.00;;;;;;5056959;28;20448;-76
2022/06/12 02:59:24;;;;;;;11.40;9.73;;;18.30;1.00;;;;;;5058065;28;20909;-77
2022/06/12 03:02:02;;;;;;;12.73;11.33;;;18.40;1.00;;;;;;5060323;28;20482;-76
2022/06/12 03:04:36;;;;;;;12.20;11.00;;;18.50;1.00;;;;;;5056939;28;20467;-77
2022/06/12 03:07:03;;;;;;;14.43;10.80;;;18.40;1.00;;;;;;5059113;28;20455;-76
2022/06/12 03:09:30;;;;;;;11.43;10.23;;;18.40;1.00;;;;;;5049291;28;20458;-75
2022/06/12 03:11:57;;;;;;;10.93;9.67;;;18.40;1.00;;;;;;5059340;28;20518;-75
2022/06/12 03:14:25;;;;;;;13.00;10.70;;;18.40;1.00;;;;;;5050781;28;20495;-75
2022/06/12 03:16:57;;;;;;;12.30;10.23;;;18.40;1.00;;;;;;5060828;28;20480;-76
2022/06/12 03:19:28;;;;;;;11.50;10.30;;;18.40;1.00;;;;;;5058251;28;20530;-75
2022/06/12 03:22:09;;;;;;;11.60;10.40;;;18.40;1.00;;;;;;5061279;28;20484;-75
2022/06/12 03:24:53;;;;;;;12.50;10.90;;;18.40;1.00;;;;;;5056367;28;20520;-75
2022/06/12 03:27:38;;;;;;;12.87;11.53;;;18.40;1.00;;;;;;5054779;28;20472;-75
2022/06/12 03:30:11;;;;;;;11.40;9.87;;;18.30;1.00;;;;;;5060391;28;20464;-77
2022/06/12 03:32:49;;;;;;;14.93;10.90;;;18.20;1.00;;;;;;5062696;28;20459;-77
2022/06/12 03:35:26;;;;;;;14.80;11.73;;;18.20;1.00;;;;;;5057290;28;20499;-77
2022/06/12 03:37:59;;;;;;;12.60;11.10;;;18.20;1.00;;;;;;5061324;28;20464;-74
2022/06/12 03:40:34;;;;;;;15.73;11.30;;;18.20;1.00;;;;;;5057596;28;20471;-76
2022/06/12 03:43:10;;;;;;;12.30;10.53;;;18.10;1.00;;;;;;5055127;28;20467;-77
2022/06/12 03:45:44;;;;;;;13.20;11.80;;;18.10;1.00;;;;;;5058326;28;20521;-76
2022/06/12 03:48:23;;;;;;;12.43;10.80;;;18.10;1.00;;;;;;5057402;28;20466;-75
2022/06/12 03:51:00;;;;;;;12.20;10.90;;;18.10;1.00;;;;;;5060550;28;21250;-76
2022/06/12 03:53:35;;;;;;;12.80;11.50;;;18.20;1.00;;;;;;5059592;28;20470;-75
2022/06/12 03:58:58;;;;;;;14.17;11.83;;;18.20;1.00;;;;;;5060792;28;21022;-76
2022/06/12 04:01:26;;;;;;;12.40;10.37;;;18.30;1.00;;;;;;5053674;28;20915;-77
2022/06/12 04:03:56;;;;;;;12.50;11.20;;;18.40;1.00;;;;;;5052064;28;20486;-78
2022/06/12 04:06:26;;;;;;;13.00;11.13;;;18.50;1.00;;;;;;5055129;28;20467;-74
2022/06/12 04:08:57;;;;;;;15.00;10.93;;;18.50;1.00;;;;;;5059020;28;20938;-76
2022/06/12 04:11:27;;;;;;;12.43;10.30;;;18.60;1.00;;;;;;5058949;28;21023;-76
2022/06/12 04:13:54;;;;;;;13.93;11.17;;;18.60;1.00;;;;;;5055638;28;20487;-76
2022/06/12 04:16:28;;;;;;;14.90;10.93;;;18.50;1.00;;;;;;5054974;28;20487;-76
2022/06/12 04:18:56;;;;;;;13.23;10.57;;;18.50;1.00;;;;;;5059427;28;20466;-76
2022/06/12 04:21:30;;;;;;;12.60;10.33;;;18.50;1.00;;;;;;5058410;28;20455;-75
2022/06/12 04:24:05;;;;;;;16.17;12.33;;;18.50;1.00;;;;;;5057743;28;20468;-76
2022/06/12 04:26:36;;;;;;;15.03;12.53;;;18.50;1.00;;;;;;5056437;28;20459;-76
2022/06/12 04:29:06;;;;;;;13.10;11.43;;;18.50;1.00;;;;;;5058538;28;20470;-76
2022/06/12 04:31:37;;;;;;;11.80;10.47;;;18.70;1.00;;;;;;5056866;28;20464;-76
2022/06/12 04:34:15;;;;;;;12.40;10.20;;;18.90;1.00;;;;;;5055844;28;20436;-77
2022/06/12 04:36:45;;;;;;;12.80;10.70;;;19.10;1.00;;;;;;5058505;28;20941;-75
2022/06/12 04:39:15;;;;;;;11.50;10.23;;;19.30;1.00;;;;;;5058302;28;20510;-77
2022/06/12 04:41:43;;;;;;;12.57;10.03;;;19.50;1.00;;;;;;5058028;28;20919;-76
2022/06/12 04:44:10;;;;;;;12.50;10.00;;;19.60;1.00;;;;;;5057570;28;20542;-74
2022/06/12 04:46:41;;;;;;;14.27;10.20;;;19.60;1.00;;;;;;5055567;28;20452;-76
2022/06/12 04:49:11;;;;;;;11.33;9.43;;;19.50;1.00;;;;;;5056739;28;20842;-76
2022/06/12 04:51:38;;;;;;;12.47;9.90;;;19.40;1.00;;;;;;5055342;28;21624;-76
2022/06/12 04:54:05;;;;;;;11.83;10.03;;;19.30;1.00;;;;;;5058434;28;20471;-76
2022/06/12 04:56:33;;;;;;;12.97;10.27;;;19.30;1.00;;;;;;5058976;28;20492;-75
2022/06/12 04:59:01;;;;;;;12.63;9.97;;;19.20;1.00;;;;;;5054512;28;21307;-75
2022/06/12 05:01:32;;;;;;;11.70;10.20;;;19.10;1.00;;;;;;5054099;28;20457;-76
2022/06/12 05:03:59;;;;;;;13.63;11.00;;;19.00;1.00;;;;;;5047608;28;20460;-76
2022/06/12 05:06:29;;;;;;;14.70;12.60;;;18.80;1.00;;;;;;5056445;28;20558;-76
2022/06/12 05:08:56;;;;;;;16.23;11.93;;;18.60;1.00;;;;;;5059977;28;20578;-76
2022/06/12 05:11:24;;;;;;;13.53;12.13;;;18.50;1.00;;;;;;5056204;28;20602;-76
2022/06/12 05:13:51;;;;;;;13.97;12.50;;;18.40;1.00;;;;;;5059967;28;20468;-77
2022/06/12 05:16:25;;;;;;;15.73;13.50;;;18.40;1.00;;;;;;5055448;28;20559;-77
2022/06/12 05:18:52;;;;;;;15.50;12.53;;;18.50;1.00;;;;;;5058698;28;20447;-74
2022/06/12 05:21:19;;;;;;;15.03;13.50;;;18.50;1.00;;;;;;5058560;28;20471;-75
2022/06/12 05:23:48;;;;;;;16.73;13.13;;;18.60;1.00;;;;;;5056472;28;20470;-76
2022/06/12 05:26:17;;;;;;;15.70;14.00;;;18.50;1.00;;;;;;5055207;28;20599;-75
2022/06/12 05:28:44;;;;;;;15.80;13.53;;;18.50;1.00;;;;;;5055829;28;20448;-76
2022/06/12 05:31:11;;;;;;;14.70;13.20;;;18.50;1.00;;;;;;5060081;28;20478;-77
2022/06/12 05:33:38;;;;;;;15.10;13.27;;;18.50;1.00;;;;;;5056519;28;20474;-76
2022/06/12 05:36:06;;;;;;;15.47;12.70;;;18.60;1.00;;;;;;5057854;28;20463;-76
2022/06/12 05:38:33;;;;;;;15.17;13.23;;;18.80;1.00;;;;;;5056974;28;20527;-75
2022/06/12 05:41:02;;;;;;;14.73;12.70;;;19.10;1.00;;;;;;5059885;28;20463;-75
2022/06/12 05:43:29;;;;;;;14.20;12.40;;;19.20;1.00;;;;;;5054247;28;20484;-77
2022/06/12 05:45:57;;;;;;;14.93;13.40;;;19.30;1.00;;;;;;5054805;28;20461;-76
2022/06/12 05:48:24;;;;;;;17.87;16.10;;;19.50;1.00;;;;;;5054215;28;20462;-77
2022/06/12 05:50:53;;;;;;;16.60;13.17;;;19.80;1.00;;;;;;5058080;28;20466;-77
2022/06/12 05:53:23;;;;;;;14.03;12.63;;;20.00;1.00;;;;;;5055886;28;20881;-76
2022/06/12 05:55:49;;;;;;;13.20;11.70;;;20.20;1.00;;;;;;5057534;28;21287;-75
2022/06/12 05:58:20;;;;;;;15.80;12.00;;;20.30;1.00;;;;;;5058513;28;20452;-76
2022/06/12 06:00:48;;;;;;;15.10;12.13;;;20.50;1.00;;;;;;5059370;28;20464;-77
2022/06/12 06:03:17;;;;;;;13.70;12.30;;;20.60;1.00;;;;;;5053039;28;20456;-76
2022/06/12 06:05:46;;;;;;;13.20;11.80;;;20.60;1.00;;;;;;5056478;28;20451;-75
2022/06/12 06:08:14;;;;;;;13.00;11.60;;;20.80;1.00;;;;;;5060659;28;20463;-76
2022/06/12 06:10:41;;;;;;;11.73;10.40;;;20.80;1.00;;;;;;5061029;28;20456;-76
2022/06/12 06:13:10;;;;;;;13.20;11.20;;;20.70;1.00;;;;;;5056911;28;20459;-76
2022/06/12 06:15:41;;;;;;;12.80;11.10;;;20.80;1.00;;;;;;5046884;28;20532;-77
2022/06/12 06:18:08;;;;;;;13.30;11.30;;;20.80;1.00;;;;;;5060160;28;20567;-77
2022/06/12 06:20:38;;;;;;;14.93;12.03;;;21.00;1.00;;;;;;5057596;28;20464;-75
2022/06/12 06:23:05;;;;;;;14.10;11.33;;;21.20;1.00;;;;;;5059919;28;20499;-75
2022/06/12 06:25:32;;;;;;;14.70;12.23;;;21.40;1.00;;;;;;5056294;28;20487;-76
2022/06/12 06:28:01;;;;;;;15.43;11.80;;;21.50;1.00;;;;;;5057009;28;20478;-75
2022/06/12 06:30:29;;;;;;;14.20;12.70;;;21.60;1.00;;;;;;5057792;28;20459;-76
2022/06/12 06:32:59;;;;;;;14.60;12.77;;;21.70;1.00;;;;;;5059033;28;20471;-75
2022/06/12 06:35:26;;;;;;;13.63;10.80;;;21.80;1.00;;;;;;5059747;28;20459;-77
2022/06/12 06:37:54;;;;;;;14.73;11.80;;;21.80;1.00;;;;;;5060120;28;20459;-76
2022/06/12 06:40:24;;;;;;;12.30;11.00;;;21.60;1.00;;;;;;5055423;28;20479;-76
2022/06/12 06:42:51;;;;;;;12.93;11.53;;;21.70;1.00;;;;;;5056772;28;20475;-77
2022/06/12 06:48:06;;;;;;;13.00;10.37;;;21.80;1.00;;;;;;5060477;28;21009;-77
2022/06/12 06:50:35;;;;;;;15.50;11.97;;;21.70;1.00;;;;;;5058989;28;20464;-76
2022/06/12 06:53:02;;;;;;;13.43;12.03;;;21.80;1.00;;;;;;5062794;28;20473;-76
2022/06/12 06:55:31;;;;;;;11.73;10.43;;;22.10;1.00;;;;;;5058244;28;20482;-76
2022/06/12 06:57:58;;;;;;;13.27;11.87;;;22.50;1.00;;;;;;5059199;28;20460;-76
2022/06/12 07:00:29;;;;;;;13.33;11.17;;;22.70;1.00;;;;;;5058053;28;20548;-77
2022/06/12 07:02:56;;;;;;;17.60;12.53;;;22.80;1.00;;;;;;5058303;28;20499;-77
2022/06/12 07:05:24;;;;;;;14.10;11.47;;;22.70;1.00;;;;;;5045249;28;20514;-77
2022/06/12 07:07:51;;;;;;;14.57;11.20;;;22.70;1.00;;;;;;5064005;28;20463;-77
2022/06/12 07:10:23;;;;;;;13.17;11.20;;;22.70;1.00;;;;;;5061564;28;20456;-77
2022/06/12 07:12:51;;;;;;;13.90;11.47;;;22.80;1.00;;;;;;5057587;28;20455;-77
2022/06/12 07:15:19;;;;;;;14.07;10.87;;;22.90;1.00;;;;;;5056399;28;20507;-77
2022/06/12 07:17:47;;;;;;;12.37;11.07;;;23.10;1.00;;;;;;5061686;28;20471;-77
2022/06/12 07:20:17;;;;;;;11.87;9.67;;;23.20;1.00;;;;;;5063951;28;20461;-77
2022/06/12 07:22:45;;;;;;;11.60;9.53;;;23.20;1.00;;;;;;5049477;28;20471;-77
2022/06/12 07:25:13;;;;;;;12.70;9.70;;;23.20;1.00;;;;;;5061522;28;21242;-77
2022/06/12 07:27:41;;;;;;;12.27;10.37;;;23.10;1.00;;;;;;5064378;28;20982;-77
2022/06/12 07:30:09;;;;;;;13.00;10.13;;;22.90;1.00;;;;;;5063471;28;20456;-77
2022/06/12 07:32:36;;;;;;;11.70;10.50;;;22.80;1.00;;;;;;5063788;28;20476;-78
2022/06/12 07:35:05;;;;;;;13.23;11.80;;;22.70;1.00;;;;;;5067237;28;20468;-77
2022/06/12 07:37:33;;;;;;;12.27;9.90;;;22.70;1.00;;;;;;5063030;28;20468;-78
2022/06/12 07:40:02;;;;;;;12.60;9.63;;;22.70;1.00;;;;;;5064185;28;20528;-77
2022/06/12 07:42:29;;;;;;;12.00;10.80;;;22.80;1.00;;;;;;5060411;28;20482;-78
2022/06/12 07:44:56;;;;;;;12.27;10.00;;;22.80;1.00;;;;;;5062530;28;20448;-77
2022/06/12 07:47:24;;;;;;;11.60;10.40;;;22.90;1.00;;;;;;5059506;28;20476;-77
2022/06/12 07:49:52;;;;;;;12.70;10.80;;;23.00;1.00;;;;;;5064541;28;20463;-77
2022/06/12 07:52:21;;;;;;;13.57;9.67;;;23.00;1.00;;;;;;5056159;28;20481;-78
2022/06/12 07:54:48;;;;;;;10.97;8.97;;;23.30;1.00;;;;;;5065554;28;20916;-77
2022/06/12 07:57:18;;;;;;;10.17;8.50;;;23.40;1.00;;;;;;5062739;28;20460;-76
2022/06/12 07:59:47;;;;;;;12.07;8.67;;;23.60;1.00;;;;;;5063456;28;20844;-77
2022/06/12 08:02:14;;;;;;;9.43;7.10;;;23.50;1.00;;;;;;5057079;28;20484;-76
2022/06/12 08:04:41;;;;;;;12.57;8.63;;;23.50;1.00;;;;;;5058703;28;20538;-76
2022/06/12 08:07:09;;;;;;;10.80;6.87;;;23.60;1.00;;;;;;5061766;28;20482;-75
2022/06/12 08:09:36;;;;;;;10.93;7.70;;;23.50;1.00;;;;;;5058482;28;20482;-76
2022/06/12 08:12:04;;;;;;;11.40;7.03;;;23.40;1.00;;;;;;5060165;28;20472;-76
2022/06/12 08:14:32;;;;;;;9.23;7.40;;;23.60;1.00;;;;;;5057487;28;20473;-77
2022/06/12 08:16:59;;;;;;;9.13;6.10;;;23.70;1.00;;;;;;5059835;28;20521;-81
2022/06/12 08:22:12;;;;;;;10.70;6.20;;;24.10;1.00;;;;;;5057745;28;22059;-77
2022/06/12 08:24:39;;;;;;;8.80;5.80;;;24.20;1.00;;;;;;5056320;28;20912;-76
2022/06/12 08:27:07;;;;;;;8.13;6.20;;;24.40;1.00;;;;;;5060487;28;20981;-75
2022/06/12 08:29:35;;;;;;;9.33;5.10;;;24.70;1.00;;;;;;5053167;28;20456;-76
2022/06/12 08:32:07;;;;;;;10.07;5.30;;;24.90;1.00;;;;;;5061105;28;20475;-75
2022/06/12 08:34:37;;;;;;;9.27;5.90;;;25.00;1.00;;;;;;5055976;28;20451;-75
2022/06/12 08:37:09;;;;;;;9.60;5.77;;;24.90;1.00;;;;;;5061217;28;20456;-77
2022/06/12 08:39:36;;;;;;;10.40;7.53;;;25.00;1.00;;;;;;5059453;28;20463;-74
2022/06/12 08:42:09;;;;;;;10.57;6.70;;;25.20;1.00;;;;;;5057280;28;20480;-75
2022/06/12 08:44:44;;;;;;;11.93;7.07;;;25.30;1.00;;;;;;5053073;28;22258;-76
2022/06/12 08:47:17;;;;;;;10.60;6.27;;;25.50;1.00;;;;;;5057032;28;20487;-76
2022/06/12 08:49:50;;;;;;;9.93;5.13;;;25.60;1.00;;;;;;5059779;28;20560;-75
2022/06/12 08:52:21;;;;;;;8.70;5.10;;;25.80;1.00;;;;;;5058753;28;20468;-76
2022/06/12 08:54:55;;;;;;;8.87;5.07;;;26.00;1.00;;;;;;5062821;28;20456;-76
2022/06/12 08:57:29;;;;;;;9.97;4.60;;;26.20;1.00;;;;;;5057349;28;20563;-76
2022/06/12 09:00:03;;;;;;;9.03;4.50;;;26.50;1.00;;;;;;5057242;28;20484;-80
2022/06/12 09:02:36;;;;;;;7.47;4.00;;;26.80;1.00;;;;;;5057844;28;20478;-76
2022/06/12 09:05:05;;;;;;;9.17;3.60;;;26.90;1.00;;;;;;5052011;28;20542;-78
2022/06/12 09:07:39;;;;;;;7.83;3.33;;;27.00;1.00;;;;;;5059155;28;20497;-75
2022/06/12 09:10:09;;;;;;;9.13;4.30;;;26.90;1.00;;;;;;5056120;28;20576;-77
2022/06/12 09:12:45;;;;;;;8.30;4.30;;;26.70;1.00;;;;;;5060845;28;20642;-77
2022/06/12 09:15:23;;;;;;;10.70;4.97;;;26.50;1.00;;;;;;5062411;28;21124;-78
2022/06/12 09:18:00;;;;;;;7.33;4.43;;;26.40;1.00;;;;;;5063744;28;20504;-78
2022/06/12 09:20:37;;;;;;;8.43;4.13;;;26.50;1.00;;;;;;5057851;28;20482;-77
2022/06/12 09:23:11;;;;;;;8.20;4.13;;;26.60;1.00;;;;;;5056423;28;20467;-77
2022/06/12 09:25:49;;;;;;;7.80;3.70;;;26.60;1.00;;;;;;5055733;28;20443;-76
2022/06/12 09:28:27;;;;;;;8.10;3.60;;;26.70;1.00;;;;;;5056959;28;20474;-77
2022/06/12 09:31:01;;;;;;;8.00;3.60;;;26.80;1.00;;;;;;5049277;28;20451;-77
2022/06/12 09:33:34;;;;;;;7.50;3.47;;;27.00;1.00;;;;;;5062407;28;20939;-78
2022/06/12 09:36:15;;;;;;;7.50;3.63;;;26.90;1.00;;;;;;5063471;28;20439;-77
2022/06/12 09:38:54;;;;;;;7.50;3.70;;;26.90;1.00;;;;;;5056267;28;20467;-76
2022/06/12 09:41:25;;;;;;;7.00;3.67;;;27.00;1.00;;;;;;5056586;28;20509;-78
2022/06/12 09:44:08;;;;;;;8.13;4.07;;;27.00;1.00;;;;;;5056608;28;20475;-76
2022/06/12 09:46:43;;;;;;;9.70;4.10;;;27.00;1.00;;;;;;5061629;28;20452;-77
2022/06/12 09:49:31;;;;;;;7.90;3.80;;;27.00;1.00;;;;;;5063902;28;20578;-75
2022/06/12 09:52:18;;;;;;;8.83;3.67;;;27.70;1.00;;;;;;5055041;28;20456;-76
2022/06/12 09:54:54;;;;;;;7.80;3.87;;;29.50;1.00;;;;;;5057419;28;20556;-76
2022/06/12 09:57:31;;;;;;;7.23;3.20;;;31.60;1.00;;;;;;5052663;28;20475;-77
2022/06/12 10:00:05;;;;;;;8.17;3.97;;;32.90;1.00;;;;;;5065110;28;20438;-76
2022/06/12 10:02:44;;;;;;;7.97;3.77;;;32.80;1.00;;;;;;5066876;28;20491;-78
2022/06/12 10:05:15;;;;;;;8.57;3.80;;;32.30;1.00;;;;;;5057513;28;20474;-78
2022/06/12 10:07:47;;;;;;;6.60;3.90;;;31.70;1.00;;;;;;5069148;28;20462;-77
2022/06/12 10:10:24;;;;;;;8.40;4.70;;;31.10;1.00;;;;;;5067027;28;20561;-77
2022/06/12 10:12:59;;;;;;;7.57;3.67;;;30.60;1.00;;;;;;5061345;28;20443;-77
2022/06/12 10:15:30;;;;;;;9.87;4.50;;;30.00;1.00;;;;;;5061645;28;20467;-77
2022/06/12 10:18:06;;;;;;;8.63;4.50;;;29.60;1.00;;;;;;5065930;28;20872;-77
2022/06/12 10:20:39;;;;;;;8.77;3.77;;;29.90;1.00;;;;;;5062956;28;20978;-76
2022/06/12 10:23:06;;;;;;;6.63;2.97;;;29.90;1.00;;;;;;5061270;28;21042;-77
2022/06/12 10:25:36;;;;;;;10.37;3.83;;;30.40;1.00;;;;;;5066037;28;20586;-77
2022/06/12 10:28:07;;;;;;;8.57;3.00;;;31.70;1.00;;;;;;5064295;28;20471;-77
2022/06/12 10:30:39;;;;;;;6.50;3.00;;;32.50;1.00;;;;;;5060098;28;20452;-80
2022/06/12 10:33:20;;;;;;;9.80;4.23;;;32.50;1.00;;;;;;5061198;28;20451;-77
2022/06/12 10:35:50;;;;;;;9.37;2.77;;;31.50;1.00;;;;;;5058261;28;20477;-77
2022/06/12 10:38:19;;;;;;;6.10;3.00;;;30.60;1.00;;;;;;5064793;28;20483;-77
2022/06/12 10:40:52;;;;;;;6.70;2.60;;;30.20;1.00;;;;;;5066976;28;20459;-77
2022/06/12 10:43:28;;;;;;;8.37;3.07;;;30.50;1.00;;;;;;5066269;28;20543;-77
2022/06/12 10:46:01;;;;;;;7.60;2.83;;;30.80;1.00;;;;;;5062628;28;20467;-77
2022/06/12 10:48:34;;;;;;;6.63;2.40;;;31.30;1.00;;;;;;5063430;28;20963;-77
2022/06/12 10:51:06;;;;;;;8.30;3.00;;;32.60;1.00;;;;;;5059790;28;20446;-76
2022/06/12 10:53:34;;;;;;;9.80;3.10;;;34.30;1.00;;;;;;5075033;28;20534;-79
2022/06/12 10:56:12;;;;;;;7.17;3.77;;;35.60;1.00;;;;;;5064410;28;20480;-78
2022/06/12 10:59:19;;;;;;;10.10;5.57;;;36.30;1.00;;;;;;5062345;28;20455;-77
2022/06/12 11:01:58;;;;;;;7.37;4.63;;;36.90;1.00;;;;;;5058145;28;20977;-77
2022/06/12 11:04:37;;;;;;;6.60;3.07;;;36.90;1.00;;;;;;5060473;28;20987;-77
2022/06/12 11:07:17;;;;;;;7.50;3.00;;;36.40;1.00;;;;;;5066110;28;20471;-76
2022/06/12 11:10:00;;;;;;;6.70;3.00;;;36.30;1.00;;;;;;5062684;28;20492;-78
2022/06/12 11:12:52;;;;;;;8.87;3.60;;;35.90;1.00;;;;;;5062114;28;20960;-77
2022/06/12 11:15:48;;;;;;;6.20;2.53;;;36.40;1.00;;;;;;5061896;28;20940;-78
2022/06/12 11:18:20;;;;;;;8.80;4.20;;;36.40;1.00;;;;;;5059090;28;20885;-77
2022/06/12 11:21:00;;;;;;;6.23;2.80;;;35.90;1.00;;;;;;5063328;28;21343;-76
2022/06/12 11:23:46;;;;;;;7.80;3.27;;;34.70;1.00;;;;;;5064174;28;20593;-76
2022/06/12 11:26:23;;;;;;;6.23;2.80;;;33.60;1.00;;;;;;5063185;28;20462;-77
2022/06/12 11:29:02;;;;;;;8.13;3.10;;;32.50;1.00;;;;;;5063574;28;20954;-75
2022/06/12 11:31:45;;;;;;;8.47;3.73;;;31.60;1.00;;;;;;5058544;28;20452;-76
2022/06/12 11:34:44;;;;;;;7.90;3.40;;;31.80;1.00;;;;;;5055761;28;20472;-76
2022/06/12 11:37:32;;;;;;;10.13;3.40;;;32.20;1.00;;;;;;5061481;28;20551;-77
2022/06/12 11:40:05;;;;;;;8.20;3.10;;;32.00;1.00;;;;;;5062027;28;20508;-76
2022/06/12 11:42:51;;;;;;;7.30;3.00;;;31.50;1.00;;;;;;5061393;28;20467;-76
2022/06/12 11:45:27;;;;;;;6.77;2.50;;;31.30;1.00;;;;;;5058621;28;20474;-78
2022/06/12 11:48:14;;;;;;;7.73;3.10;;;31.30;1.00;;;;;;5060192;28;20475;-77
2022/06/12 11:50:46;;;;;;;7.17;2.97;;;33.10;1.00;;;;;;5066126;28;20868;-77
2022/06/12 11:53:35;;;;;;;6.50;2.97;;;33.40;1.00;;;;;;5062533;28;20454;-77
2022/06/12 11:56:07;;;;;;;11.33;3.30;;;34.50;1.00;;;;;;5064344;28;20455;-76
2022/06/12 11:58:48;;;;;;;6.67;2.83;;;34.80;1.00;;;;;;5057429;28;20481;-76
2022/06/12 12:01:22;;;;;;;9.43;3.53;;;33.60;1.00;;;;;;5076228;28;20530;-77
2022/06/12 12:04:18;;;;;;;6.80;2.50;;;32.90;1.00;;;;;;5065908;28;20972;-76
2022/06/12 12:06:57;;;;;;;7.40;2.97;;;34.10;1.00;;;;;;5054423;28;20458;-77
2022/06/12 12:09:36;;;;;;;6.80;2.60;;;35.70;1.00;;;;;;5063304;28;20471;-76
2022/06/12 12:12:09;;;;;;;6.40;2.57;;;37.20;1.00;;;;;;5062323;28;20480;-77
2022/06/12 12:14:40;;;;;;;9.83;3.00;;;38.20;1.00;;;;;;5067999;28;20460;-76
2022/06/12 12:17:11;;;;;;;6.50;2.80;;;38.60;1.00;;;;;;5062594;28;20579;-75
2022/06/12 12:19:43;;;;;;;7.30;3.47;;;38.00;1.00;;;;;;5063851;28;20451;-78
2022/06/12 12:22:16;;;;;;;6.83;3.30;;;38.20;1.00;;;;;;5064534;28;20606;-78
2022/06/12 12:24:48;;;;;;;8.03;2.87;;;39.40;1.00;;;;;;5063225;28;20455;-77
2022/06/12 12:27:24;;;;;;;5.67;2.77;;;40.20;1.00;;;;;;5062284;28;20929;-78
2022/06/12 12:29:54;;;;;;;6.40;2.40;;;39.90;1.00;;;;;;5053042;28;20554;-77
2022/06/12 12:32:21;;;;;;;6.43;3.27;;;38.30;1.00;;;;;;5059659;28;20483;-76
2022/06/12 12:34:53;;;;;;;5.20;2.60;;;37.90;1.00;;;;;;5056064;28;20433;-77
2022/06/12 12:43:04;;;;;;;5.83;2.70;;;36.80;1.00;;;;;;5063744;28;20463;-77
2022/06/12 12:45:36;;;;;;;5.60;2.70;;;37.00;1.00;;;;;;5060363;28;20915;-76
2022/06/12 12:48:05;;;;;;;6.80;2.63;;;37.60;1.00;;;;;;5063283;28;20480;-77
2022/06/12 12:50:43;;;;;;;6.33;3.10;;;37.60;1.00;;;;;;5062105;28;21973;-77
2022/06/12 12:53:21;;;;;;;7.90;3.63;;;36.80;1.00;;;;;;5062498;28;20550;-77
2022/06/12 12:56:01;;;;;;;9.27;4.53;;;37.10;1.00;;;;;;5064393;28;20462;-76
2022/06/12 12:58:30;;;;;;;5.83;2.80;;;38.10;1.00;;;;;;5061736;28;20491;-77
2022/06/12 13:01:17;;;;;;;6.03;3.17;;;39.20;1.00;;;;;;5061649;28;20458;-76
2022/06/12 13:03:48;;;;;;;5.83;3.70;;;39.50;1.00;;;;;;5056499;28;20476;-76
2022/06/12 13:06:35;;;;;;;6.10;2.60;;;40.00;1.00;;;;;;5062514;28;20569;-78
2022/06/12 13:09:25;;;;;;;6.27;2.93;;;39.70;1.00;;;;;;5058277;28;20471;-76
2022/06/12 13:12:15;;;;;;;6.63;2.90;;;40.20;1.00;;;;;;5053225;28;20552;-77
2022/06/12 13:15:09;;;;;;;5.33;2.40;;;41.10;1.00;;;;;;5064453;28;20519;-77
2022/06/12 13:17:48;;;;;;;8.20;3.27;;;40.90;1.00;;;;;;5062556;28;20567;-77
2022/06/12 13:20:32;;;;;;;6.63;3.00;;;39.60;1.00;;;;;;5061681;28;20547;-78
2022/06/12 13:23:17;;;;;;;7.07;3.10;;;39.20;1.00;;;;;;5059478;28;20548;-77
2022/06/12 13:25:47;;;;;;;4.73;2.77;;;39.20;1.00;;;;;;5060139;28;20539;-77
2022/06/12 13:28:22;;;;;;;6.27;3.20;;;38.00;1.00;;;;;;5063248;28;20486;-76
2022/06/12 13:30:50;;;;;;;5.70;2.43;;;38.30;1.00;;;;;;5058640;28;20461;-77